Arches, Utah
Current Conditions -  °F | °C
As of 12:53 PM on Monday 22 Dec 2014 (Local Time) from KCNY Reporting Station
Clear Clear  
Wind Chill: 50°   Ceiling: Unl
Heat Index: 50°   Visibility: 10mi
Dew Point: 38°   Wind: 7mph
Humidity: 63%   Direction: 300°WNW
Pressure: 29.83"   Gusts: NA
Location:  38.6903°N, 109.256°W
Report Text: KCNY 221953Z AUTO 30006KT 10SM CLR 10/03 A2983 RMK AO2 SLP100 T01000033
Loading
Personal Weather Stations






























Interactive Weather Map New forecast layout! Learn more

10-Day Weather Forecast

Advertisements
Track Severe Weather on mobile